createdAt,value
2023-04-18T00:01:51.922Z,96767.47
2023-04-18T00:04:19.457Z,96774.09
2023-04-18T00:06:47.260Z,96769.84
2023-04-18T00:09:14.067Z,96766.97
2023-04-18T00:11:41.297Z,96768.22
2023-04-18T00:14:08.531Z,96765.06
2023-04-18T00:16:36.240Z,96771.47
2023-04-18T00:19:04.739Z,96773.47
2023-04-18T00:21:32.977Z,96774.38
2023-04-18T00:23:59.841Z,96776.22
2023-04-18T00:26:28.154Z,96772.41
2023-04-18T00:28:55.003Z,96776.41
2023-04-18T00:31:21.832Z,96776.06
2023-04-18T00:33:48.768Z,96783.13
2023-04-18T00:36:15.628Z,96776.88
2023-04-18T00:38:42.518Z,96772.63
2023-04-18T00:41:09.363Z,96783.13
2023-04-18T00:43:37.134Z,96774.41
2023-04-18T00:46:03.984Z,96764.19
2023-04-18T00:48:31.282Z,96770.19
2023-04-18T00:51:00.190Z,96765.75
2023-04-18T00:53:28.128Z,96766.66
2023-04-18T00:55:55.525Z,96759.78
2023-04-18T00:58:22.545Z,96769.88
2023-04-18T01:00:49.682Z,96764.28
2023-04-18T01:03:18.410Z,96770.88
2023-04-18T01:05:46.498Z,96772.09
2023-04-18T01:08:13.996Z,96777.75
2023-04-18T01:10:40.876Z,96778.94
2023-04-18T01:13:19.690Z,96778.84
2023-04-18T01:15:50.871Z,96773.53
2023-04-18T01:18:19.027Z,96775.69
2023-04-18T01:20:51.281Z,96785.75
2023-04-18T01:23:19.739Z,96776.97
2023-04-18T01:25:49.146Z,96769.47
2023-04-18T01:28:16.484Z,96769.06
2023-04-18T01:30:43.330Z,96767.72
2023-04-18T01:33:10.531Z,96760.50
2023-04-18T01:35:37.350Z,96764.97
2023-04-18T01:38:04.258Z,96766.06
2023-04-18T01:40:31.341Z,96766.41
2023-04-18T01:42:58.258Z,96766.97
2023-04-18T01:45:25.115Z,96763.00
2023-04-18T01:47:52.071Z,96762.66
2023-04-18T01:50:18.991Z,96752.69
2023-04-18T01:52:45.920Z,96755.19
2023-04-18T01:55:12.812Z,96761.38
2023-04-18T01:57:39.823Z,96757.47
2023-04-18T02:00:08.032Z,96755.75
2023-04-18T02:02:35.108Z,96753.22
2023-04-18T02:05:02.088Z,96751.59
2023-04-18T02:07:29.061Z,96746.13
2023-04-18T02:09:55.925Z,96746.81
2023-04-18T02:12:22.737Z,96745.78
2023-04-18T02:14:53.540Z,96750.44
2023-04-18T02:17:23.972Z,96748.97
2023-04-18T02:19:51.649Z,96750.53
2023-04-18T02:22:18.826Z,96754.31
2023-04-18T02:24:46.109Z,96756.28
2023-04-18T02:27:12.986Z,96756.28
2023-04-18T02:29:39.950Z,96751.97
2023-04-18T02:32:07.247Z,96764.53
2023-04-18T02:34:34.224Z,96760.19
2023-04-18T02:37:01.022Z,96763.38
2023-04-18T02:39:27.935Z,96764.97
2023-04-18T02:41:54.781Z,96766.59
2023-04-18T02:44:21.550Z,96764.00
2023-04-18T02:46:48.459Z,96767.53
2023-04-18T02:49:15.326Z,96771.72
2023-04-18T02:51:42.177Z,96761.03
2023-04-18T02:54:08.983Z,96756.84
2023-04-18T02:56:39.927Z,96770.94
2023-04-18T02:59:07.333Z,96763.16
2023-04-18T03:01:34.401Z,96765.84
2023-04-18T03:04:01.320Z,96758.75
2023-04-18T03:06:28.149Z,96768.91
2023-04-18T03:08:55.822Z,96765.75
2023-04-18T03:11:22.807Z,96765.41
2023-04-18T03:13:49.594Z,96763.13
2023-04-18T03:16:16.864Z,96751.50
2023-04-18T03:18:43.833Z,96756.63
2023-04-18T03:21:11.420Z,96757.00
2023-04-18T03:23:38.574Z,96759.38
2023-04-18T03:26:13.730Z,96750.22
2023-04-18T03:28:40.804Z,96750.59
2023-04-18T03:31:07.738Z,96754.88
2023-04-18T03:33:34.565Z,96754.94
2023-04-18T03:36:01.540Z,96757.66
2023-04-18T03:38:28.371Z,96757.88
2023-04-18T03:40:55.265Z,96751.41
2023-04-18T03:43:22.068Z,96755.78
2023-04-18T03:45:49.028Z,96757.09
2023-04-18T03:48:16.022Z,96751.97
2023-04-18T03:50:42.806Z,96755.69
2023-04-18T03:53:09.642Z,96755.94
2023-04-18T03:55:36.572Z,96751.97
2023-04-18T03:58:03.449Z,96762.00
2023-04-18T04:00:30.454Z,96757.47
2023-04-18T04:02:57.414Z,96760.78
2023-04-18T04:05:24.479Z,96767.94
2023-04-18T04:07:51.353Z,96759.31
2023-04-18T04:10:18.157Z,96765.66
2023-04-18T04:12:45.075Z,96761.75
2023-04-18T04:15:12.272Z,96761.97
2023-04-18T04:17:39.215Z,96766.75
2023-04-18T04:20:07.321Z,96768.38
2023-04-18T04:22:34.506Z,96777.34
2023-04-18T04:25:01.356Z,96768.38
2023-04-18T04:27:28.234Z,96769.09
2023-04-18T04:29:56.334Z,96770.09
2023-04-18T04:32:25.012Z,96778.25
2023-04-18T04:34:52.155Z,96770.34
2023-04-18T04:37:21.486Z,96768.09
2023-04-18T04:39:48.367Z,96769.06
2023-04-18T04:42:15.300Z,96774.84
2023-04-18T04:44:42.996Z,96774.75
2023-04-18T04:47:09.859Z,96764.91
2023-04-18T04:49:36.723Z,96770.97
2023-04-18T04:52:03.535Z,96774.00
2023-04-18T04:54:30.505Z,96778.53
2023-04-18T04:56:57.375Z,96781.66
2023-04-18T04:59:24.223Z,96776.09
2023-04-18T05:01:51.153Z,96777.44
2023-04-18T05:04:18.512Z,96775.41
2023-04-18T05:06:46.115Z,96780.31
2023-04-18T05:09:13.574Z,96787.38
2023-04-18T05:11:40.525Z,96783.34
2023-04-18T05:14:07.459Z,96779.06
2023-04-18T05:16:34.657Z,96778.91
2023-04-18T05:19:01.592Z,96783.84
2023-04-18T05:21:29.352Z,96790.44
2023-04-18T05:23:56.291Z,96797.31
2023-04-18T05:26:23.424Z,96788.47
2023-04-18T05:28:50.355Z,96795.84
2023-04-18T05:31:17.321Z,96795.75
2023-04-18T05:33:44.201Z,96794.69
2023-04-18T05:36:11.161Z,96802.47
2023-04-18T05:38:38.050Z,96796.31
2023-04-18T05:41:04.994Z,96797.06
2023-04-18T05:43:31.852Z,96808.66
2023-04-18T05:45:58.752Z,96806.13
2023-04-18T05:48:25.758Z,96809.38
2023-04-18T05:50:52.636Z,96812.63
2023-04-18T05:53:19.482Z,96805.09
2023-04-18T05:55:48.653Z,96800.31
2023-04-18T05:58:16.029Z,96800.63
2023-04-18T06:00:43.456Z,96804.41
2023-04-18T06:03:11.312Z,96812.47
2023-04-18T06:05:40.988Z,96809.94
2023-04-18T06:08:08.118Z,96815.31
2023-04-18T06:10:36.455Z,96818.22
2023-04-18T06:13:05.897Z,96823.47
2023-04-18T06:15:32.812Z,96819.13
2023-04-18T06:17:59.759Z,96819.47
2023-04-18T06:20:26.697Z,96824.75
2023-04-18T06:22:53.586Z,96824.25
2023-04-18T06:25:20.797Z,96825.09
2023-04-18T06:27:47.629Z,96817.00
2023-04-18T06:30:14.971Z,96834.00
2023-04-18T06:32:41.910Z,96832.72
2023-04-18T06:35:09.033Z,96828.53
2023-04-18T06:37:35.992Z,96828.69
2023-04-18T06:40:03.004Z,96834.94
2023-04-18T06:42:29.845Z,96833.25
2023-04-18T06:44:56.701Z,96832.75
2023-04-18T06:47:23.597Z,96830.25
2023-04-18T06:49:50.511Z,96826.28
2023-04-18T06:52:17.386Z,96832.88
2023-04-18T06:54:44.379Z,96834.91
2023-04-18T06:57:11.334Z,96838.44
2023-04-18T06:59:38.459Z,96831.19
2023-04-18T07:02:05.394Z,96825.06
2023-04-18T07:04:32.422Z,96820.06
2023-04-18T07:06:59.346Z,96826.13
2023-04-18T07:09:26.207Z,96824.84
2023-04-18T07:11:53.154Z,96834.41
2023-04-18T07:14:24.387Z,96834.34
2023-04-18T07:16:51.774Z,96833.69
2023-04-18T07:19:18.640Z,96826.66
2023-04-18T07:21:45.989Z,96827.69
2023-04-18T07:24:13.539Z,96837.47
2023-04-18T07:26:41.013Z,96835.63
2023-04-18T07:29:07.893Z,96832.81
2023-04-18T07:31:34.910Z,96832.22
2023-04-18T07:34:01.789Z,96840.97
2023-04-18T07:36:28.734Z,96829.00
2023-04-18T07:38:55.698Z,96844.22
2023-04-18T07:41:22.646Z,96843.41
2023-04-18T07:43:49.466Z,96844.44
2023-04-18T07:46:16.440Z,96838.31
2023-04-18T07:48:43.315Z,96840.38
2023-04-18T07:51:11.316Z,96850.13
2023-04-18T07:53:38.268Z,96848.09
2023-04-18T07:56:05.418Z,96857.22
2023-04-18T07:58:34.288Z,96852.88
2023-04-18T08:01:01.159Z,96858.06
2023-04-18T08:03:28.165Z,96849.06
2023-04-18T08:05:55.894Z,96857.66
2023-04-18T08:08:22.680Z,96856.34
2023-04-18T08:10:49.599Z,96847.03
2023-04-18T08:13:17.873Z,96862.91
2023-04-18T08:15:44.754Z,96855.25
2023-04-18T08:18:11.563Z,96851.75
2023-04-18T08:20:38.674Z,96849.47
2023-04-18T08:23:08.590Z,96856.31
2023-04-18T08:25:36.688Z,96854.63
2023-04-18T08:28:04.171Z,96861.50
2023-04-18T08:30:31.457Z,96863.66
2023-04-18T08:33:00.431Z,96865.66
2023-04-18T08:35:27.630Z,96864.50
2023-04-18T08:37:54.519Z,96863.50
2023-04-18T08:40:21.577Z,96860.97
2023-04-18T08:42:49.216Z,96870.19
2023-04-18T08:45:16.325Z,96866.19
2023-04-18T08:47:43.320Z,96868.28
2023-04-18T08:50:11.222Z,96871.13
2023-04-18T08:52:40.173Z,96867.91
2023-04-18T08:55:09.353Z,96877.00
2023-04-18T08:57:36.507Z,96878.63
2023-04-18T09:00:09.241Z,96883.06
2023-04-18T09:02:42.077Z,96878.00
2023-04-18T09:05:21.231Z,96875.09
2023-04-18T09:07:53.234Z,96884.97
2023-04-18T09:10:32.629Z,96883.31
2023-04-18T09:13:04.272Z,96880.78
2023-04-18T09:15:31.471Z,96892.28
2023-04-18T09:18:02.313Z,96878.22
2023-04-18T09:20:41.036Z,96884.53
2023-04-18T09:23:16.629Z,96889.97
2023-04-18T09:25:48.602Z,96893.59
2023-04-18T09:28:29.677Z,96890.63
2023-04-18T09:31:12.004Z,96886.84
2023-04-18T09:33:44.733Z,96884.25
2023-04-18T09:36:23.780Z,96884.41
2023-04-18T09:38:55.354Z,96884.63
2023-04-18T09:41:23.474Z,96878.41
2023-04-18T09:43:58.732Z,96881.47
2023-04-18T09:46:27.345Z,96881.84
2023-04-18T09:48:54.265Z,96877.88
2023-04-18T09:51:21.508Z,96870.81
2023-04-18T09:53:50.251Z,96880.16
2023-04-18T09:56:28.763Z,96881.69
2023-04-18T09:59:08.567Z,96880.41
2023-04-18T10:01:36.480Z,96873.31
2023-04-18T10:04:06.539Z,96878.84
2023-04-18T10:06:39.644Z,96878.91
2023-04-18T10:09:09.752Z,96876.13
2023-04-18T10:11:36.922Z,96873.88
2023-04-18T10:14:10.088Z,96876.34
2023-04-18T10:16:37.897Z,96873.97
2023-04-18T10:19:26.154Z,96877.50
2023-04-18T10:22:01.074Z,96872.84
2023-04-18T10:24:56.259Z,96874.06
2023-04-18T10:27:47.754Z,96874.75
2023-04-18T10:30:18.595Z,96879.19
2023-04-18T10:32:48.641Z,96878.19
2023-04-18T10:35:15.567Z,96870.81
2023-04-18T10:37:52.643Z,96874.28
2023-04-18T10:40:34.130Z,96869.53
2023-04-18T10:43:01.500Z,96869.31
2023-04-18T10:45:31.280Z,96870.34
2023-04-18T10:48:25.993Z,96867.47
2023-04-18T10:51:19.155Z,96858.81
2023-04-18T10:53:54.472Z,96871.97
2023-04-18T10:56:21.836Z,96860.47
2023-04-18T10:58:53.215Z,96860.09
2023-04-18T11:01:32.377Z,96863.66
2023-04-18T11:04:01.312Z,96855.91
2023-04-18T11:06:29.077Z,96855.31
2023-04-18T11:09:12.565Z,96853.31
2023-04-18T11:11:40.264Z,96849.44
2023-04-18T11:14:07.476Z,96854.13
2023-04-18T11:16:34.658Z,96839.50
2023-04-18T11:19:18.840Z,96837.69
2023-04-18T11:21:45.785Z,96835.09
2023-04-18T11:24:21.560Z,96840.22
2023-04-18T11:26:48.450Z,96833.63
2023-04-18T11:29:18.035Z,96836.97
2023-04-18T11:31:56.624Z,96843.13
2023-04-18T11:34:30.574Z,96837.91
2023-04-18T11:36:57.836Z,96835.84
2023-04-18T11:39:25.203Z,96834.44
2023-04-18T11:41:52.180Z,96836.50
2023-04-18T11:44:24.666Z,96834.41
2023-04-18T11:46:52.492Z,96832.88
2023-04-18T11:49:32.791Z,96841.03
2023-04-18T11:52:01.315Z,96846.78
2023-04-18T11:54:38.793Z,96854.72
2023-04-18T11:57:07.019Z,96855.72
2023-04-18T11:59:33.985Z,96852.09
2023-04-18T12:02:14.881Z,96854.16
2023-04-18T12:04:57.512Z,96859.91
2023-04-18T12:07:40.006Z,96863.19
2023-04-18T12:10:17.263Z,96856.69
2023-04-18T12:12:55.281Z,96857.97
2023-04-18T12:15:28.210Z,96862.50
2023-04-18T12:18:01.401Z,96858.88
2023-04-18T12:20:46.005Z,96858.66
2023-04-18T12:23:40.034Z,96856.72
2023-04-18T12:26:12.351Z,96855.66
2023-04-18T12:28:39.322Z,96853.19
2023-04-18T12:31:07.277Z,96849.47
2023-04-18T12:33:36.555Z,96856.97
2023-04-18T12:36:05.362Z,96853.94
2023-04-18T12:38:32.245Z,96846.13
2023-04-18T12:40:59.043Z,96849.66
2023-04-18T12:43:25.886Z,96852.91
2023-04-18T12:45:52.711Z,96846.19
2023-04-18T12:48:19.531Z,96850.88
2023-04-18T12:50:46.375Z,96853.06
2023-04-18T12:53:13.240Z,96844.06
2023-04-18T12:55:40.236Z,96846.69
2023-04-18T12:58:07.154Z,96849.44
2023-04-18T13:00:34.098Z,96846.19
2023-04-18T13:03:01.426Z,96845.69
2023-04-18T13:05:32.596Z,96845.72
2023-04-18T13:10:31.387Z,96859.34
2023-04-18T13:12:58.424Z,96855.09
2023-04-18T13:15:26.121Z,96864.06
2023-04-18T13:17:55.824Z,96851.53
2023-04-18T13:20:22.747Z,96860.78
2023-04-18T13:22:49.671Z,96854.31
2023-04-18T13:25:16.932Z,96861.84
2023-04-18T13:27:45.169Z,96857.97
2023-04-18T13:30:12.336Z,96862.06
2023-04-18T13:32:40.371Z,96848.00
2023-04-18T13:35:08.845Z,96853.91
2023-04-18T13:37:36.079Z,96853.22
2023-04-18T13:40:05.514Z,96853.59
2023-04-18T13:42:37.163Z,96852.31
2023-04-18T13:45:04.724Z,96859.91
2023-04-18T13:47:31.718Z,96856.84
2023-04-18T13:49:58.577Z,96875.34
2023-04-18T13:52:25.843Z,96865.34
2023-04-18T13:54:52.876Z,96865.69
2023-04-18T13:57:19.767Z,96867.34
2023-04-18T13:59:46.851Z,96864.50
2023-04-18T14:02:14.333Z,96864.47
2023-04-18T14:04:41.496Z,96864.91
2023-04-18T14:07:09.023Z,96864.03
2023-04-18T14:09:36.060Z,96872.19
2023-04-18T14:12:02.901Z,96867.66
2023-04-18T14:14:29.955Z,96874.00
2023-04-18T14:16:56.911Z,96870.59
2023-04-18T14:19:23.969Z,96876.75
2023-04-18T14:21:50.871Z,96865.16
2023-04-18T14:24:17.920Z,96876.81
2023-04-18T14:26:44.734Z,96880.81
2023-04-18T14:29:11.717Z,96882.75
2023-04-18T14:31:38.645Z,96876.88
2023-04-18T14:34:05.755Z,96873.25
2023-04-18T14:36:32.695Z,96880.91
2023-04-18T14:38:59.585Z,96876.28
2023-04-18T14:41:26.845Z,96877.66
2023-04-18T14:43:53.731Z,96875.59
2023-04-18T14:46:21.306Z,96874.81
2023-04-18T14:48:48.245Z,96877.41
2023-04-18T14:51:16.668Z,96884.09
2023-04-18T14:53:44.942Z,96873.28
2023-04-18T14:56:12.246Z,96878.34
2023-04-18T14:58:39.082Z,96880.78
2023-04-18T15:01:05.966Z,96876.31
2023-04-18T15:03:33.354Z,96886.88
2023-04-18T15:06:00.519Z,96877.97
2023-04-18T15:08:27.635Z,96877.59
2023-04-18T15:10:54.484Z,96876.75
2023-04-18T15:13:21.272Z,96880.25
2023-04-18T15:15:56.199Z,96886.56
2023-04-18T15:18:23.178Z,96887.22
2023-04-18T15:20:51.571Z,96881.69
2023-04-18T15:23:18.498Z,96887.59
2023-04-18T15:25:46.419Z,96881.50
2023-04-18T15:28:13.993Z,96896.31
2023-04-18T15:30:41.028Z,96884.53
2023-04-18T15:33:08.578Z,96886.06
2023-04-18T15:35:36.072Z,96886.19
2023-04-18T15:38:03.037Z,96892.22
2023-04-18T15:40:30.389Z,96893.03
2023-04-18T15:42:59.362Z,96892.25
2023-04-18T15:45:26.269Z,96894.59
2023-04-18T15:47:53.342Z,96894.75
2023-04-18T15:50:20.503Z,96894.31
2023-04-18T15:52:47.447Z,96894.72
2023-04-18T15:55:14.335Z,96890.63
2023-04-18T15:57:42.078Z,96901.84
2023-04-18T16:00:17.407Z,96895.16
2023-04-18T16:02:46.033Z,96898.81
2023-04-18T16:05:13.766Z,96908.94
2023-04-18T16:07:42.134Z,96909.72
2023-04-18T16:10:10.293Z,96906.06
2023-04-18T16:12:39.020Z,96909.28
2023-04-18T16:15:08.608Z,96910.84
2023-04-18T16:17:37.075Z,96903.97
2023-04-18T16:20:09.081Z,96907.88
2023-04-18T16:22:36.984Z,96908.69
2023-04-18T16:25:04.733Z,96911.13
2023-04-18T16:27:32.331Z,96905.53
2023-04-18T16:29:59.261Z,96906.84
2023-04-18T16:32:26.371Z,96911.75
2023-04-18T16:34:53.256Z,96906.50
2023-04-18T16:37:20.343Z,96908.38
2023-04-18T16:39:47.433Z,96910.81
2023-04-18T16:42:15.686Z,96905.97
2023-04-18T16:44:44.701Z,96909.03
2023-04-18T16:47:11.669Z,96915.13
2023-04-18T16:49:38.611Z,96916.56
2023-04-18T16:52:05.482Z,96912.94
2023-04-18T16:54:32.328Z,96911.50
2023-04-18T16:56:59.241Z,96910.69
2023-04-18T16:59:26.075Z,96911.47
2023-04-18T17:01:53.028Z,96913.09
2023-04-18T17:04:19.977Z,96918.41
2023-04-18T17:06:46.983Z,96919.84
2023-04-18T17:09:14.725Z,96924.50
2023-04-18T17:11:41.908Z,96918.81
2023-04-18T17:14:08.926Z,96924.72
2023-04-18T17:16:42.300Z,96927.16
2023-04-18T17:19:10.574Z,96920.44
2023-04-18T17:21:38.302Z,96922.06
2023-04-18T17:24:06.974Z,96923.31
2023-04-18T17:26:35.771Z,96930.59
2023-04-18T17:29:04.260Z,96924.50
2023-04-18T17:31:31.974Z,96928.59
2023-04-18T17:33:59.668Z,96929.72
2023-04-18T17:36:27.227Z,96927.75
2023-04-18T17:38:54.149Z,96926.91
2023-04-18T17:41:21.886Z,96926.31
2023-04-18T17:43:53.476Z,96926.53
2023-04-18T17:46:20.477Z,96923.66
2023-04-18T17:48:47.355Z,96931.97
2023-04-18T17:51:16.249Z,96930.53
2023-04-18T17:53:43.245Z,96947.03
2023-04-18T17:56:10.077Z,96940.31
2023-04-18T17:58:39.861Z,96949.25
2023-04-18T18:01:26.154Z,96938.50
2023-04-18T18:03:54.060Z,96951.69
2023-04-18T18:06:21.322Z,96950.88
2023-04-18T18:08:48.186Z,96954.03
2023-04-18T18:11:15.152Z,96951.44
2023-04-18T18:13:42.378Z,96959.72
2023-04-18T18:16:09.211Z,96956.78
2023-04-18T18:18:39.708Z,96963.34
2023-04-18T18:21:06.676Z,96963.34
2023-04-18T18:23:33.489Z,96962.06
2023-04-18T18:26:00.690Z,96960.66
2023-04-18T18:28:27.743Z,96963.91
2023-04-18T18:30:54.570Z,96966.88
2023-04-18T18:33:21.438Z,96955.97
2023-04-18T18:35:48.369Z,96960.22
2023-04-18T18:38:15.208Z,96970.59
2023-04-18T18:40:42.207Z,96967.25
2023-04-18T18:43:12.647Z,96969.38
2023-04-18T18:45:39.474Z,96973.22
2023-04-18T18:48:10.092Z,96978.78
2023-04-18T18:50:37.198Z,96972.50
2023-04-18T18:53:08.651Z,96980.66
2023-04-18T18:55:35.482Z,96977.25
2023-04-18T18:58:02.586Z,96979.75
2023-04-18T19:00:29.425Z,96980.50
2023-04-18T19:02:56.460Z,96983.28
2023-04-18T19:05:23.491Z,96986.25
2023-04-18T19:07:51.547Z,96991.47
2023-04-18T19:10:21.583Z,96989.34
2023-04-18T19:12:49.040Z,96995.38
2023-04-18T19:15:15.940Z,96996.38
2023-04-18T19:17:42.915Z,96997.88
2023-04-18T19:20:09.995Z,96996.97
2023-04-18T19:22:40.976Z,96997.50
2023-04-18T19:25:10.607Z,96993.09
2023-04-18T19:27:40.830Z,96990.78
2023-04-18T19:30:09.017Z,97004.63
2023-04-18T19:32:35.926Z,96991.00
2023-04-18T19:35:05.796Z,96999.91
2023-04-18T19:37:32.908Z,96987.91
2023-04-18T19:39:59.736Z,96986.31
2023-04-18T19:42:27.254Z,96983.88
2023-04-18T19:44:54.303Z,96982.50
2023-04-18T19:47:24.137Z,96985.50
2023-04-18T19:49:51.145Z,96994.16
2023-04-18T19:52:21.537Z,96992.28
2023-04-18T19:54:48.793Z,96992.94
2023-04-18T19:57:15.716Z,96990.00
2023-04-18T19:59:43.240Z,96986.50
2023-04-18T20:02:10.319Z,96992.94
2023-04-18T20:04:37.594Z,96994.34
2023-04-18T20:07:04.634Z,96980.06
2023-04-18T20:09:31.498Z,96997.56
2023-04-18T20:12:00.567Z,96991.06
2023-04-18T20:14:28.722Z,96993.53
2023-04-18T20:16:56.644Z,96996.31
2023-04-18T20:19:25.708Z,97000.19
2023-04-18T20:21:52.919Z,96995.47
2023-04-18T20:24:21.157Z,97004.66
2023-04-18T20:26:48.118Z,97002.72
2023-04-18T20:29:15.367Z,97002.19
2023-04-18T20:31:45.155Z,97006.34
2023-04-18T20:34:12.059Z,97000.56
2023-04-18T20:36:44.586Z,97005.66
2023-04-18T20:39:13.100Z,97004.00
2023-04-18T20:41:46.403Z,97011.09
2023-04-18T20:44:14.052Z,97011.31
2023-04-18T20:46:42.690Z,96998.69
2023-04-18T20:49:09.857Z,97008.22
2023-04-18T20:51:37.961Z,97004.06
2023-04-18T20:54:05.657Z,97002.84
2023-04-18T20:56:33.726Z,96994.06
2023-04-18T20:59:00.823Z,97003.91
2023-04-18T21:01:27.741Z,96997.44
2023-04-18T21:03:54.702Z,96999.44
2023-04-18T21:06:22.132Z,97003.59
2023-04-18T21:08:49.097Z,97004.06
2023-04-18T21:11:15.955Z,97007.34
2023-04-18T21:13:42.820Z,97010.22
2023-04-18T21:16:10.571Z,97009.56
2023-04-18T21:18:37.597Z,97001.38
2023-04-18T21:21:05.399Z,97011.84
2023-04-18T21:23:32.227Z,97003.31
2023-04-18T21:25:59.007Z,97004.94
2023-04-18T21:28:25.907Z,97015.50
2023-04-18T21:30:52.711Z,97015.25
2023-04-18T21:33:19.599Z,97012.84
2023-04-18T21:35:46.394Z,97011.31
2023-04-18T21:38:13.872Z,97007.97
2023-04-18T21:40:40.659Z,97011.63
2023-04-18T21:43:07.525Z,97015.25
2023-04-18T21:45:34.348Z,96999.13
2023-04-18T21:48:01.264Z,97006.47
2023-04-18T21:50:28.217Z,97008.47
2023-04-18T21:52:55.167Z,97012.13
2023-04-18T21:55:22.025Z,97009.69
2023-04-18T21:57:48.838Z,97012.91
2023-04-18T22:00:16.543Z,97004.78
2023-04-18T22:02:43.642Z,97004.94
2023-04-18T22:05:12.871Z,97008.34
2023-04-18T22:07:54.393Z,97013.91
2023-04-18T22:10:25.102Z,97002.56
2023-04-18T22:12:55.755Z,97006.56
2023-04-18T22:15:24.085Z,97002.06
2023-04-18T22:17:50.978Z,96998.28
2023-04-18T22:20:17.915Z,96997.00
2023-04-18T22:22:44.887Z,97001.09
2023-04-18T22:25:11.858Z,97008.00
2023-04-18T22:27:39.509Z,96991.59
2023-04-18T22:30:07.311Z,96986.44
2023-04-18T22:32:34.167Z,96998.97
2023-04-18T22:35:02.593Z,96993.31
2023-04-18T22:37:29.524Z,96992.81
2023-04-18T22:39:56.323Z,96987.53
2023-04-18T22:42:23.183Z,96992.81
2023-04-18T22:44:50.088Z,96992.41
2023-04-18T22:47:16.906Z,96991.69
2023-04-18T22:49:44.384Z,96990.09
2023-04-18T22:52:11.853Z,96989.72
2023-04-18T22:54:42.251Z,96985.25
2023-04-18T22:57:09.136Z,96994.97
2023-04-18T22:59:36.069Z,96994.78
2023-04-18T23:02:03.037Z,96992.41
2023-04-18T23:04:30.175Z,97004.44
2023-04-18T23:06:57.089Z,96998.19
2023-04-18T23:09:24.476Z,96996.28
2023-04-18T23:11:51.337Z,97001.72
2023-04-18T23:14:18.294Z,96994.72
2023-04-18T23:16:45.259Z,96991.91
2023-04-18T23:19:12.044Z,97000.88
2023-04-18T23:21:38.883Z,97005.34
2023-04-18T23:24:06.441Z,96996.38
2023-04-18T23:26:33.295Z,96997.47
2023-04-18T23:29:00.239Z,96995.47
2023-04-18T23:31:27.166Z,96992.44
2023-04-18T23:33:54.731Z,96991.72
2023-04-18T23:36:21.559Z,96987.47
2023-04-18T23:38:48.347Z,96982.63
2023-04-18T23:41:15.172Z,96984.56
2023-04-18T23:43:42.024Z,96991.03
2023-04-18T23:46:08.963Z,96990.56
2023-04-18T23:48:35.926Z,96985.22
2023-04-18T23:51:02.744Z,96980.78
2023-04-18T23:53:29.612Z,96982.41
2023-04-18T23:55:56.507Z,96973.16
2023-04-18T23:58:23.308Z,96976.06
